Kathleen, GA

6:54 PM EDT on May 24, 2015 (GMT -0400)
Avington Glenn | | Change Station
CLOSE
Current Station
Personal Weather Station
Location: Perry, GA
Elevation: 335 ft
Nearby Weather Stations

Elev 335 ft 32.47 °N, 83.68 °W | Updated 9 minutes ago

Clear
Clear
91.4 °F
Feels Like 92 °F
N
2.2
Wind Variable Wind from ESE

Today
High -- | Low -- °F
--% Chance of Precip.
Yesterday
High -- | Low -- °F
Precip. -- in
6:31 AM 8:31 PM
Waxing Crescent, 43% visible
Pressure 30.21 in
Visibility 10.0 miles
Clouds Scattered Clouds 6000 ft
Heat Index 92 °F
Dew Point 62 °F
Humidity 38%
Rainfall 0.00 in
Snow Depth Not available.
UV 5 out of 12
Pollen 5.50 out of 12
Air Quality Not available.
Flu Activity Sporadic
METAR KWRB 242058Z AUTO 06007KT 10SM SCT060 30/15 A3021 RMK AO2 SLP230 T03010153 57021

More Conditions Fewer Conditions

Pressure 30.21 in
Visibility 10.0 miles
Clouds Scattered Clouds 6000 ft
Heat Index 92 °F
Dew Point 62 °F
Humidity 38%
Rainfall 0.00 in
Snow Depth Not available.
UV 5 out of 12
Pollen 5.50 out of 12
Air Quality Not available.
Flu Activity Sporadic
METAR KWRB 242058Z AUTO 06007KT 10SM SCT060 30/15 A3021 RMK AO2 SLP230 T03010153 57021

More Conditions Fewer Conditions

10-Day Weather Forecast

Almanac

Astronomy

May. 24, 2015 Rise Set
Actual Time
Civil Twilight
Nautical Twilight
Astronomical Twilight
Moon
Length of Visible Light
Length of Day
Tomorrow will be .
, % of the Moon is Illuminated

Today's Extremes

State Highs State Lows

Community

WunderPhotos

Upload Photos

1,823,885 photos uploaded!

WunderBlogs® & News

Nearby

Air Quality

  Air Quality AQ Index Pollutant
Not available.

Snow Depth

Station Depth Elevation

Earthquake Activity

City Distance Mag. Time & Date
Minimum magnitude displayed is 2.5.

Coastal Water Temperatures

Place Temperature

Stations

Nearby Weather Stations

Station Location Temp. Windchill Dew Point Humidity Wind Precip. Elev Updated Type